Time;durP1;ratioP1;P1;durP2;ratioP2;P2;SDS_P1;SDS_P2;PMS_P1;PMS_P2;Temp;Humidity;BMP_temperature;BMP_pressure;BME280_temperature;BME280_humidity;BME280_pressure;Samples;Min_cycle;Max_cycle;Signal;HPM_P1;HPM_P2
2024/05/03 00:00:07;;;;;;;15.55;3.33;;;20.70;62.40;;;;;;5341715;26;20491;-58
2024/05/03 00:02:33;;;;;;;10.48;2.63;;;20.60;62.20;;;;;;5340922;26;20517;-58
2024/05/03 00:04:58;;;;;;;10.80;2.70;;;20.60;62.50;;;;;;5341193;26;20369;-58
2024/05/03 00:07:24;;;;;;;12.30;2.97;;;20.50;62.80;;;;;;5342709;26;20508;-59
2024/05/03 00:09:50;;;;;;;12.70;2.90;;;20.50;62.80;;;;;;5342098;26;20333;-58
2024/05/03 00:12:15;;;;;;;12.15;2.83;;;20.40;62.90;;;;;;5342490;26;20366;-57
2024/05/03 00:14:41;;;;;;;13.57;3.13;;;20.40;63.30;;;;;;5339787;26;20439;-58
2024/05/03 00:17:07;;;;;;;13.80;2.50;;;20.40;63.30;;;;;;5342017;26;20729;-60
2024/05/03 00:19:33;;;;;;;11.20;2.38;;;20.30;63.50;;;;;;5339258;26;20341;-57
2024/05/03 00:21:59;;;;;;;13.65;3.15;;;20.30;63.60;;;;;;5342321;26;20369;-58
2024/05/03 00:24:24;;;;;;;11.32;2.75;;;20.30;63.40;;;;;;5339665;26;20384;-58
2024/05/03 00:26:50;;;;;;;10.77;2.47;;;20.30;63.60;;;;;;5341417;26;20818;-59
2024/05/03 00:29:16;;;;;;;15.43;2.83;;;20.20;63.90;;;;;;5342065;26;20333;-58
2024/05/03 00:31:42;;;;;;;11.77;2.67;;;20.20;64.10;;;;;;5341363;26;20337;-58
2024/05/03 00:34:08;;;;;;;11.50;2.40;;;20.20;64.20;;;;;;5340561;26;21395;-59
2024/05/03 00:36:33;;;;;;;11.30;2.70;;;20.20;64.00;;;;;;5342694;26;20823;-60
2024/05/03 00:38:59;;;;;;;11.45;2.67;;;20.20;64.30;;;;;;5342862;26;20333;-58
2024/05/03 00:41:25;;;;;;;11.27;2.80;;;20.10;64.80;;;;;;5342361;26;20348;-58
2024/05/03 00:43:50;;;;;;;10.32;2.58;;;20.20;64.80;;;;;;5341103;26;20365;-59
2024/05/03 00:46:17;;;;;;;13.93;2.72;;;20.10;64.90;;;;;;5342290;26;20345;-59
2024/05/03 00:48:44;;;;;;;13.27;2.40;;;20.00;65.00;;;;;;5338218;26;20336;-59
2024/05/03 00:51:10;;;;;;;17.27;3.60;;;20.00;65.20;;;;;;5342304;26;20672;-58
2024/05/03 00:53:38;;;;;;;10.35;2.17;;;20.00;65.30;;;;;;5340320;26;20332;-59
2024/05/03 00:56:05;;;;;;;13.15;2.60;;;20.00;65.20;;;;;;5368954;26;20333;-58
2024/05/03 00:58:35;;;;;;;10.30;2.72;;;20.00;65.10;;;;;;5342096;26;20946;-58
2024/05/03 01:01:01;;;;;;;9.88;2.40;;;20.00;65.20;;;;;;5342564;26;20421;-58
2024/05/03 01:03:26;;;;;;;10.73;2.85;;;19.90;65.50;;;;;;5338601;26;20365;-59
2024/05/03 01:05:53;;;;;;;10.13;2.30;;;19.90;65.50;;;;;;5341375;26;20696;-58
2024/05/03 01:08:18;;;;;;;15.05;2.88;;;19.90;65.90;;;;;;5340564;26;20325;-58
2024/05/03 01:10:44;;;;;;;9.95;2.22;;;19.80;66.00;;;;;;5341356;26;20332;-58
2024/05/03 01:13:10;;;;;;;11.20;3.07;;;19.70;66.20;;;;;;5338478;26;20328;-59
2024/05/03 01:15:36;;;;;;;11.43;2.90;;;19.70;66.20;;;;;;5340574;26;20479;-57
2024/05/03 01:18:01;;;;;;;14.60;3.07;;;19.70;66.30;;;;;;5340670;26;20376;-59
2024/05/03 01:20:27;;;;;;;10.05;2.60;;;19.70;66.40;;;;;;5341438;26;20678;-58
2024/05/03 01:23:01;;;;;;;14.05;3.03;;;19.70;66.60;;;;;;5340506;26;20325;-59
2024/05/03 01:25:27;;;;;;;11.23;2.65;;;19.60;66.90;;;;;;5339819;26;20372;-59
2024/05/03 01:27:52;;;;;;;11.25;2.58;;;19.50;67.10;;;;;;5339252;26;20344;-57
2024/05/03 01:30:18;;;;;;;10.47;2.77;;;19.60;67.20;;;;;;5341765;26;20373;-58
2024/05/03 01:32:44;;;;;;;11.55;2.60;;;19.60;67.10;;;;;;5338470;26;20344;-58
2024/05/03 01:35:09;;;;;;;13.32;2.55;;;19.50;67.10;;;;;;5339758;26;20365;-57
2024/05/03 01:37:35;;;;;;;6.67;1.90;;;19.60;67.20;;;;;;5341411;26;20815;-57
2024/05/03 01:40:01;;;;;;;12.85;2.28;;;19.50;67.30;;;;;;5341103;26;20838;-58
2024/05/03 01:42:26;;;;;;;13.23;2.47;;;19.50;67.40;;;;;;5340914;26;20333;-58
2024/05/03 01:44:52;;;;;;;10.73;2.47;;;19.50;67.20;;;;;;5339490;26;20333;-59
2024/05/03 01:47:18;;;;;;;11.18;2.38;;;19.50;67.30;;;;;;5341577;26;20433;-59
2024/05/03 01:49:43;;;;;;;12.27;2.53;;;19.50;67.30;;;;;;5338295;26;20376;-58
2024/05/03 01:52:10;;;;;;;11.80;2.60;;;19.40;67.60;;;;;;5340755;26;20344;-58
2024/05/03 01:54:36;;;;;;;14.05;2.95;;;19.30;67.70;;;;;;5339512;26;20332;-58
2024/05/03 01:57:01;;;;;;;10.03;2.30;;;19.30;68.10;;;;;;5341693;26;20428;-58
2024/05/03 01:59:27;;;;;;;11.02;2.88;;;19.30;68.00;;;;;;5340921;26;20329;-57
2024/05/03 02:01:53;;;;;;;13.40;2.73;;;19.30;68.20;;;;;;5341273;26;20794;-59
2024/05/03 02:04:18;;;;;;;8.37;2.20;;;19.40;68.20;;;;;;5339059;26;20337;-58
2024/05/03 02:06:44;;;;;;;13.65;2.92;;;19.40;68.30;;;;;;5341209;26;20325;-58
2024/05/03 02:09:10;;;;;;;15.63;2.93;;;19.30;68.40;;;;;;5340228;26;20369;-58
2024/05/03 02:11:35;;;;;;;15.75;2.75;;;19.30;68.30;;;;;;5340198;26;20465;-58
2024/05/03 02:14:01;;;;;;;10.60;2.50;;;19.40;68.30;;;;;;5339243;26;20392;-58
2024/05/03 02:16:28;;;;;;;10.50;2.47;;;19.30;68.40;;;;;;5340445;26;20878;-59
2024/05/03 02:18:54;;;;;;;12.52;2.28;;;19.20;68.40;;;;;;5339121;26;20397;-59
2024/05/03 02:21:19;;;;;;;13.63;2.60;;;19.30;68.70;;;;;;5340795;26;20340;-59
2024/05/03 02:23:45;;;;;;;12.55;2.42;;;19.20;68.70;;;;;;5338985;26;20383;-59
2024/05/03 02:26:11;;;;;;;12.60;2.60;;;19.20;68.80;;;;;;5340263;26;20337;-58
2024/05/03 02:28:36;;;;;;;7.03;2.30;;;19.20;68.80;;;;;;5339353;26;20431;-58
2024/05/03 02:31:02;;;;;;;12.93;2.63;;;19.20;68.80;;;;;;5340214;26;20410;-57
2024/05/03 02:33:28;;;;;;;10.90;2.37;;;19.20;68.80;;;;;;5337519;26;20878;-57
2024/05/03 02:35:53;;;;;;;10.40;2.65;;;19.10;68.90;;;;;;5339097;26;20332;-58
2024/05/03 02:38:19;;;;;;;9.98;2.60;;;19.10;69.40;;;;;;5341196;26;20809;-59
2024/05/03 02:40:44;;;;;;;10.50;2.10;;;19.10;69.70;;;;;;5343276;26;20332;-58
2024/05/03 02:43:11;;;;;;;14.57;2.80;;;19.00;69.60;;;;;;5342326;26;20323;-58
2024/05/03 02:45:37;;;;;;;14.55;2.90;;;19.00;70.00;;;;;;5342357;26;21194;-57
2024/05/03 02:48:03;;;;;;;10.23;2.80;;;19.00;69.90;;;;;;5342742;26;20364;-58
2024/05/03 02:50:29;;;;;;;10.30;2.40;;;19.00;69.90;;;;;;5343097;26;20381;-59
2024/05/03 02:52:55;;;;;;;12.63;2.23;;;18.90;70.10;;;;;;5342035;26;20354;-59
2024/05/03 02:55:21;;;;;;;11.27;2.80;;;18.90;70.70;;;;;;5341934;26;20861;-58
2024/05/03 02:57:46;;;;;;;12.20;2.87;;;18.80;70.70;;;;;;5342549;26;20357;-58
2024/05/03 03:00:12;;;;;;;9.88;2.47;;;18.80;70.90;;;;;;5343143;26;20336;-57
2024/05/03 03:02:42;;;;;;;12.33;3.03;;;18.80;71.20;;;;;;5343084;26;20321;-57
2024/05/03 03:05:09;;;;;;;8.38;2.83;;;18.80;71.00;;;;;;5340486;26;20377;-58
2024/05/03 03:07:35;;;;;;;14.00;2.85;;;18.70;71.00;;;;;;5340289;26;20403;-57
2024/05/03 03:10:04;;;;;;;13.38;3.10;;;18.70;71.40;;;;;;5342481;26;20435;-57
2024/05/03 03:12:33;;;;;;;16.83;3.08;;;18.70;71.70;;;;;;5336940;26;20340;-58
2024/05/03 03:14:58;;;;;;;10.63;2.75;;;18.70;71.90;;;;;;5336462;26;20325;-58
2024/05/03 03:17:24;;;;;;;12.37;2.60;;;18.70;71.90;;;;;;5341934;26;20369;-58
2024/05/03 03:19:50;;;;;;;12.32;2.65;;;18.70;71.80;;;;;;5341522;26;20445;-57
2024/05/03 03:22:16;;;;;;;13.27;2.93;;;18.70;72.00;;;;;;5339574;26;20803;-58
2024/05/03 03:24:42;;;;;;;9.98;2.63;;;18.70;71.90;;;;;;5338094;26;20372;-58
2024/05/03 03:27:08;;;;;;;10.45;2.75;;;18.60;72.40;;;;;;5341600;26;20332;-57
2024/05/03 03:29:36;;;;;;;10.87;2.70;;;18.60;72.50;;;;;;5339775;26;20337;-57
2024/05/03 03:32:02;;;;;;;9.95;2.55;;;18.60;72.30;;;;;;5339719;26;20371;-57
2024/05/03 03:34:30;;;;;;;11.38;2.65;;;18.60;72.40;;;;;;5339343;26;20725;-57
2024/05/03 03:36:56;;;;;;;10.35;2.67;;;18.60;72.40;;;;;;5342562;26;20341;-58
2024/05/03 03:39:21;;;;;;;9.43;2.47;;;18.60;72.80;;;;;;5343209;26;20444;-58
2024/05/03 03:41:47;;;;;;;15.68;3.00;;;18.60;72.60;;;;;;5341464;26;20333;-57
2024/05/03 03:44:13;;;;;;;14.20;3.37;;;18.50;72.80;;;;;;5342005;26;21121;-58
2024/05/03 03:46:39;;;;;;;10.20;2.70;;;18.50;72.90;;;;;;5342189;26;20349;-58
2024/05/03 03:49:04;;;;;;;11.80;2.90;;;18.50;73.20;;;;;;5338236;26;20380;-58
2024/05/03 03:51:30;;;;;;;10.60;2.92;;;18.50;73.20;;;;;;5336944;26;20329;-58
2024/05/03 03:53:56;;;;;;;10.33;2.60;;;18.40;73.30;;;;;;5341856;26;20365;-58
2024/05/03 03:56:21;;;;;;;10.47;3.10;;;18.40;73.70;;;;;;5342291;26;20336;-58
2024/05/03 03:58:47;;;;;;;12.45;2.55;;;18.40;73.80;;;;;;5342461;26;20325;-57
2024/05/03 04:01:13;;;;;;;11.80;2.73;;;18.50;73.60;;;;;;5340142;26;20958;-58
2024/05/03 04:03:38;;;;;;;11.88;3.67;;;18.40;73.50;;;;;;5339443;26;20361;-58
2024/05/03 04:06:04;;;;;;;14.35;2.75;;;18.40;73.70;;;;;;5341724;26;20340;-57
2024/05/03 04:08:30;;;;;;;8.48;2.60;;;18.30;74.00;;;;;;5342262;26;20345;-58
2024/05/03 04:10:55;;;;;;;8.18;2.90;;;18.40;74.00;;;;;;5342047;26;20337;-57
2024/05/03 04:13:21;;;;;;;12.93;2.93;;;18.40;74.10;;;;;;5340410;26;20351;-58
2024/05/03 04:15:47;;;;;;;9.07;2.63;;;18.40;74.00;;;;;;5341615;26;20432;-57
2024/05/03 04:18:14;;;;;;;8.77;2.47;;;18.40;74.10;;;;;;5338220;26;20766;-59
2024/05/03 04:20:40;;;;;;;13.18;3.05;;;18.50;74.30;;;;;;5341940;26;20471;-57
2024/05/03 04:23:06;;;;;;;9.43;2.90;;;18.50;74.10;;;;;;5341147;26;20853;-57
2024/05/03 04:25:32;;;;;;;13.13;2.70;;;18.40;74.30;;;;;;5341647;26;20380;-57
2024/05/03 04:27:57;;;;;;;10.82;2.92;;;18.40;74.50;;;;;;5341169;26;20333;-58
2024/05/03 04:30:23;;;;;;;8.70;2.53;;;18.50;74.60;;;;;;5342151;26;20873;-57
2024/05/03 04:32:49;;;;;;;10.90;2.50;;;18.50;74.70;;;;;;5340453;26;20701;-57
2024/05/03 04:35:14;;;;;;;8.07;2.80;;;18.40;74.90;;;;;;5337912;26;20333;-58
2024/05/03 04:37:40;;;;;;;9.80;2.80;;;18.40;74.70;;;;;;5341832;26;20340;-57
2024/05/03 04:40:06;;;;;;;13.80;3.60;;;18.50;74.60;;;;;;5340673;26;20361;-58
2024/05/03 04:42:32;;;;;;;10.20;2.73;;;18.50;74.60;;;;;;5341569;26;20333;-57
2024/05/03 04:44:57;;;;;;;9.57;2.78;;;18.50;74.70;;;;;;5339839;26;20321;-58
2024/05/03 04:47:23;;;;;;;7.70;2.90;;;18.50;74.70;;;;;;5341542;26;20329;-58
2024/05/03 04:49:49;;;;;;;11.77;3.40;;;18.50;74.70;;;;;;5338335;26;20329;-58
2024/05/03 04:52:14;;;;;;;10.57;3.42;;;18.50;74.70;;;;;;5341472;26;20436;-57
2024/05/03 04:54:41;;;;;;;13.07;3.17;;;18.50;74.80;;;;;;5340302;26;20727;-58
2024/05/03 04:57:06;;;;;;;13.13;3.90;;;18.50;74.70;;;;;;5339777;26;20497;-57
2024/05/03 04:59:32;;;;;;;10.05;2.92;;;18.60;74.80;;;;;;5341550;26;20325;-57
2024/05/03 05:01:58;;;;;;;10.27;2.90;;;18.60;74.50;;;;;;5334524;26;20876;-58
2024/05/03 05:04:24;;;;;;;8.98;2.60;;;18.70;74.60;;;;;;5321625;26;20383;-58
2024/05/03 05:06:50;;;;;;;12.97;3.03;;;18.70;74.30;;;;;;5341377;26;20397;-58
2024/05/03 05:09:16;;;;;;;10.30;2.67;;;18.80;74.20;;;;;;5342551;26;20365;-58
2024/05/03 05:11:41;;;;;;;10.38;3.20;;;18.90;74.10;;;;;;5341688;26;20375;-59
2024/05/03 05:14:08;;;;;;;9.03;2.50;;;18.90;74.00;;;;;;5341342;26;20344;-61
2024/05/03 05:16:34;;;;;;;10.85;3.33;;;18.90;74.00;;;;;;5341210;26;20597;-57
2024/05/03 05:19:00;;;;;;;13.97;3.80;;;18.90;74.30;;;;;;5340887;26;21190;-61
2024/05/03 05:24:10;;;;;;;10.73;3.03;;;18.80;74.30;;;;;;5340609;26;20429;-61
2024/05/03 05:26:36;;;;;;;10.25;2.65;;;19.00;74.00;;;;;;5338590;26;20336;-61
2024/05/03 05:29:02;;;;;;;11.27;3.20;;;19.00;74.10;;;;;;5341659;26;20698;-60
2024/05/03 05:31:27;;;;;;;9.37;3.03;;;19.00;74.00;;;;;;5341259;26;20333;-60
2024/05/03 05:33:53;;;;;;;11.10;3.50;;;19.00;73.80;;;;;;5339225;26;20819;-61
2024/05/03 05:36:26;;;;;;;10.27;3.30;;;19.10;73.90;;;;;;5340556;26;20332;-60
2024/05/03 05:38:55;;;;;;;8.45;3.30;;;19.10;73.90;;;;;;5341486;26;20854;-61
2024/05/03 05:41:21;;;;;;;10.60;3.08;;;19.20;73.70;;;;;;5341088;26;20797;-60
2024/05/03 05:43:46;;;;;;;8.87;2.83;;;19.20;73.60;;;;;;5340607;26;20368;-60
2024/05/03 05:46:12;;;;;;;6.97;2.80;;;19.20;73.80;;;;;;5339998;26;20785;-59
2024/05/03 05:48:39;;;;;;;12.73;3.40;;;19.30;73.20;;;;;;5340101;26;20325;-61
2024/05/03 05:51:05;;;;;;;10.55;3.40;;;19.30;73.20;;;;;;5332379;26;20336;-60
2024/05/03 05:53:33;;;;;;;9.50;3.00;;;19.40;73.40;;;;;;5340154;26;20324;-59
2024/05/03 05:56:00;;;;;;;12.75;3.20;;;19.40;73.80;;;;;;5339277;26;20337;-59
2024/05/03 05:58:26;;;;;;;15.05;3.30;;;19.40;73.90;;;;;;5338300;26;20353;-61
2024/05/03 06:00:51;;;;;;;9.67;3.57;;;19.50;73.60;;;;;;5319550;26;20722;-61
2024/05/03 06:03:17;;;;;;;6.57;2.93;;;19.50;73.60;;;;;;5320168;26;20366;-61
2024/05/03 06:05:43;;;;;;;10.52;3.50;;;19.50;74.00;;;;;;5305486;26;20868;-60
2024/05/03 06:08:09;;;;;;;12.52;3.38;;;19.60;73.70;;;;;;5333731;26;20333;-60
2024/05/03 06:10:37;;;;;;;8.55;2.80;;;19.60;73.60;;;;;;5306575;26;20332;-60
2024/05/03 06:13:03;;;;;;;10.17;2.60;;;19.70;73.10;;;;;;5335529;26;20365;-60
2024/05/03 06:15:29;;;;;;;11.75;3.67;;;19.70;72.70;;;;;;5332806;26;20336;-59
2024/05/03 06:17:54;;;;;;;9.27;3.00;;;19.70;73.40;;;;;;5339867;26;20329;-60
2024/05/03 06:20:20;;;;;;;9.65;3.05;;;19.80;73.50;;;;;;5339302;26;20336;-61
2024/05/03 06:22:46;;;;;;;9.98;3.20;;;19.90;73.40;;;;;;5337674;26;20792;-61
2024/05/03 06:25:12;;;;;;;8.97;2.87;;;19.80;73.60;;;;;;5324333;26;20335;-61
2024/05/03 06:27:38;;;;;;;9.30;2.63;;;19.90;73.30;;;;;;5332062;26;20415;-59
2024/05/03 06:30:04;;;;;;;7.97;2.87;;;19.90;73.20;;;;;;5317173;26;20360;-59
2024/05/03 06:32:30;;;;;;;9.23;2.90;;;19.90;73.30;;;;;;5331637;26;20429;-61
2024/05/03 06:34:55;;;;;;;10.43;2.43;;;19.90;73.10;;;;;;5330774;26;20336;-60
2024/05/03 06:37:26;;;;;;;6.13;2.40;;;20.10;72.70;;;;;;5324359;26;20332;-59
2024/05/03 06:39:52;;;;;;;11.02;2.45;;;20.20;72.70;;;;;;5314637;26;20347;-60
2024/05/03 06:42:18;;;;;;;8.43;2.50;;;20.40;72.00;;;;;;5297820;27;20328;-59
2024/05/03 06:44:45;;;;;;;7.47;2.23;;;20.40;71.90;;;;;;5325972;26;20373;-60
2024/05/03 06:47:11;;;;;;;8.48;2.53;;;20.40;71.60;;;;;;5321642;26;20398;-60
2024/05/03 06:49:37;;;;;;;7.95;2.58;;;20.40;71.70;;;;;;5319490;26;20356;-61
2024/05/03 06:52:03;;;;;;;6.55;2.50;;;20.30;71.90;;;;;;5331700;26;20385;-59
2024/05/03 06:54:28;;;;;;;10.02;2.50;;;20.40;71.50;;;;;;5329994;26;20377;-61
2024/05/03 06:56:54;;;;;;;11.00;2.30;;;20.40;71.30;;;;;;5329181;26;20955;-59
2024/05/03 06:59:28;;;;;;;6.73;2.80;;;20.40;71.50;;;;;;5329937;26;20332;-60
2024/05/03 07:01:56;;;;;;;9.73;2.95;;;20.30;71.70;;;;;;5325732;26;20337;-59
2024/05/03 07:04:22;;;;;;;6.53;2.53;;;20.30;72.10;;;;;;5327830;26;20345;-61
2024/05/03 07:06:48;;;;;;;9.02;2.40;;;20.20;72.40;;;;;;5325920;26;20356;-59
2024/05/03 07:09:15;;;;;;;8.43;2.25;;;20.30;73.00;;;;;;5331764;26;20729;-60
2024/05/03 07:11:42;;;;;;;9.57;2.42;;;20.30;72.00;;;;;;5331623;26;20341;-60
2024/05/03 07:14:08;;;;;;;8.57;2.38;;;20.50;71.90;;;;;;5329121;26;20333;-59
2024/05/03 07:16:34;;;;;;;8.13;2.53;;;20.70;71.10;;;;;;5331211;26;20467;-60
2024/05/03 07:19:00;;;;;;;9.02;3.05;;;20.70;71.40;;;;;;5331391;26;21232;-60
2024/05/03 07:21:26;;;;;;;7.68;3.35;;;20.60;71.60;;;;;;5331058;26;20347;-61
2024/05/03 07:23:52;;;;;;;8.60;2.30;;;20.50;72.00;;;;;;5327742;26;20341;-60
2024/05/03 07:26:18;;;;;;;8.73;2.37;;;20.60;71.40;;;;;;5331309;26;20361;-61
2024/05/03 07:28:45;;;;;;;8.02;2.80;;;20.70;71.00;;;;;;5334991;26;20340;-62
2024/05/03 07:31:10;;;;;;;9.02;2.50;;;20.70;71.00;;;;;;5334117;26;20341;-60
2024/05/03 07:33:37;;;;;;;8.93;2.63;;;20.70;71.20;;;;;;5332207;26;20357;-61
2024/05/03 07:36:06;;;;;;;11.13;2.58;;;20.70;71.40;;;;;;5329308;26;20349;-62
2024/05/03 07:38:32;;;;;;;8.80;2.90;;;20.80;71.40;;;;;;5337690;26;20438;-62
2024/05/03 07:40:58;;;;;;;9.93;2.75;;;20.70;71.30;;;;;;5341669;26;20361;-62
2024/05/03 07:43:31;;;;;;;7.85;2.83;;;20.80;71.20;;;;;;5339650;26;20437;-62
2024/05/03 07:45:57;;;;;;;10.50;3.20;;;20.90;71.50;;;;;;5367033;26;20372;-62
2024/05/03 07:48:22;;;;;;;8.83;2.70;;;20.90;71.10;;;;;;5337736;26;20325;-62
2024/05/03 07:50:48;;;;;;;8.37;2.20;;;21.00;70.90;;;;;;5333218;26;20873;-61
2024/05/03 07:53:14;;;;;;;7.10;2.17;;;21.10;70.50;;;;;;5338458;26;20377;-61
2024/05/03 07:55:40;;;;;;;6.80;2.30;;;21.10;70.30;;;;;;5335262;26;20359;-62
2024/05/03 07:58:06;;;;;;;7.22;2.40;;;21.10;70.30;;;;;;5336566;26;20337;-62
2024/05/03 08:00:32;;;;;;;9.30;2.15;;;21.10;70.40;;;;;;5334986;26;20920;-61
2024/05/03 08:02:58;;;;;;;11.10;2.40;;;21.20;70.10;;;;;;5334538;26;20369;-62
2024/05/03 08:05:24;;;;;;;7.30;2.33;;;21.30;69.90;;;;;;5338816;26;20328;-61
2024/05/03 08:07:50;;;;;;;6.43;2.53;;;21.40;70.00;;;;;;5338356;26;20329;-62
2024/05/03 08:10:15;;;;;;;5.70;2.00;;;21.50;69.30;;;;;;5339513;26;20331;-62
2024/05/03 08:12:44;;;;;;;9.15;2.83;;;21.50;69.20;;;;;;5337200;26;20356;-62
2024/05/03 08:15:10;;;;;;;6.35;2.13;;;21.40;69.60;;;;;;5340383;26;20372;-62
2024/05/03 08:17:36;;;;;;;6.07;2.25;;;21.60;69.00;;;;;;5340571;26;20431;-62
2024/05/03 08:20:02;;;;;;;6.73;2.33;;;21.60;68.90;;;;;;5339414;26;20345;-60
2024/05/03 08:22:32;;;;;;;9.40;2.33;;;21.60;69.10;;;;;;5340077;26;20451;-60
2024/05/03 08:24:58;;;;;;;5.53;1.90;;;21.80;68.30;;;;;;5340910;26;20385;-60
2024/05/03 08:27:23;;;;;;;5.97;2.38;;;21.80;68.30;;;;;;5335144;26;20448;-61
2024/05/03 08:29:49;;;;;;;9.33;2.30;;;21.70;68.80;;;;;;5339827;26;20344;-61
2024/05/03 08:32:15;;;;;;;7.70;2.70;;;21.70;68.70;;;;;;5340745;26;20359;-61
2024/05/03 08:34:40;;;;;;;7.72;2.00;;;21.70;68.80;;;;;;5336718;26;20811;-59
2024/05/03 08:37:06;;;;;;;7.47;2.23;;;21.90;68.50;;;;;;5339405;26;20344;-60
2024/05/03 08:39:32;;;;;;;7.53;2.08;;;22.00;68.20;;;;;;5339375;26;20355;-61
2024/05/03 08:42:08;;;;;;;8.30;2.28;;;22.10;67.90;;;;;;5340769;26;20396;-61
2024/05/03 08:44:37;;;;;;;6.03;2.08;;;22.20;68.00;;;;;;5340118;26;20333;-59
2024/05/03 08:47:08;;;;;;;5.95;2.45;;;22.20;67.90;;;;;;5340814;26;20444;-60
2024/05/03 08:49:46;;;;;;;4.85;2.30;;;22.60;66.70;;;;;;5341475;26;20333;-60
2024/05/03 08:52:15;;;;;;;6.93;2.10;;;23.30;64.60;;;;;;5339962;26;20321;-60
2024/05/03 08:54:41;;;;;;;6.30;2.20;;;23.40;63.60;;;;;;5337305;26;20422;-59
2024/05/03 08:57:07;;;;;;;4.55;1.73;;;23.30;64.20;;;;;;5336776;26;20335;-60
2024/05/03 08:59:35;;;;;;;4.53;2.05;;;24.40;61.80;;;;;;5340322;26;20405;-61
2024/05/03 09:02:02;;;;;;;4.95;1.83;;;26.20;57.60;;;;;;5336142;26;20349;-60
2024/05/03 09:04:27;;;;;;;3.85;1.95;;;26.20;56.50;;;;;;5343139;26;20369;-60
2024/05/03 09:06:55;;;;;;;4.30;1.63;;;25.10;58.40;;;;;;5337116;26;20328;-60
2024/05/03 09:09:25;;;;;;;6.13;2.28;;;24.60;59.20;;;;;;5334694;26;20425;-61
2024/05/03 09:11:54;;;;;;;8.30;1.90;;;26.70;56.20;;;;;;5332668;26;20353;-60
2024/05/03 09:14:20;;;;;;;6.30;1.90;;;29.30;51.10;;;;;;5335893;26;20329;-60
2024/05/03 09:17:04;;;;;;;3.43;1.53;;;29.60;48.50;;;;;;5340482;26;20361;-60
2024/05/03 09:19:29;;;;;;;8.90;2.13;;;27.20;52.50;;;;;;5333015;26;20344;-59
2024/05/03 09:21:55;;;;;;;6.70;1.98;;;25.50;56.70;;;;;;5311488;26;20509;-59
2024/05/03 09:24:23;;;;;;;7.20;1.87;;;24.50;59.00;;;;;;5339159;26;20332;-59
2024/05/03 09:26:49;;;;;;;5.97;1.88;;;23.90;60.60;;;;;;5341009;26;20333;-60
2024/05/03 09:29:18;;;;;;;6.97;2.03;;;23.90;61.10;;;;;;5341547;26;20337;-59
2024/05/03 09:31:48;;;;;;;7.10;2.10;;;23.80;60.30;;;;;;5341091;26;20341;-59
2024/05/03 09:34:14;;;;;;;6.00;1.80;;;23.80;60.90;;;;;;5340352;26;20452;-59
2024/05/03 09:36:43;;;;;;;7.53;1.90;;;23.80;61.20;;;;;;5341229;26;20381;-60
2024/05/03 09:39:10;;;;;;;6.00;1.83;;;23.80;61.20;;;;;;5340640;26;20328;-59
2024/05/03 09:41:36;;;;;;;4.32;2.15;;;23.80;61.40;;;;;;5341293;26;20380;-60
2024/05/03 09:44:02;;;;;;;7.35;1.90;;;23.80;60.80;;;;;;5315959;26;20335;-58
2024/05/03 09:46:29;;;;;;;6.25;1.80;;;23.90;60.70;;;;;;5311268;26;20371;-60
2024/05/03 09:48:55;;;;;;;5.25;1.88;;;23.80;60.40;;;;;;5340072;26;20469;-59
2024/05/03 09:51:30;;;;;;;6.75;2.10;;;23.90;60.50;;;;;;5358569;26;20705;-60
2024/05/03 09:54:06;;;;;;;8.73;2.20;;;24.20;60.30;;;;;;5338263;26;20352;-60
2024/05/03 09:56:37;;;;;;;9.50;1.95;;;24.40;59.70;;;;;;5367861;26;20365;-60
2024/05/03 09:59:10;;;;;;;5.18;1.70;;;24.50;59.60;;;;;;5341298;26;20325;-59
2024/05/03 10:01:39;;;;;;;6.15;2.10;;;24.70;59.10;;;;;;5339213;26;20860;-58
2024/05/03 10:04:07;;;;;;;5.10;2.03;;;24.70;58.90;;;;;;5337554;26;20452;-58
2024/05/03 10:06:34;;;;;;;6.35;2.03;;;24.90;58.60;;;;;;5337530;26;20329;-59
2024/05/03 10:09:02;;;;;;;6.67;2.40;;;24.90;58.40;;;;;;5339628;26;20420;-58
2024/05/03 10:11:29;;;;;;;9.07;2.08;;;25.00;57.90;;;;;;5341179;26;20397;-58
2024/05/03 10:13:56;;;;;;;2.63;1.60;;;25.20;57.60;;;;;;5340467;26;20430;-59
2024/05/03 10:16:24;;;;;;;5.47;2.17;;;25.40;57.00;;;;;;5339110;26;20341;-59
2024/05/03 10:18:50;;;;;;;4.10;1.70;;;25.30;56.90;;;;;;5337449;26;20320;-59
2024/05/03 10:21:32;;;;;;;3.95;1.73;;;25.20;57.30;;;;;;5340267;26;20325;-59
2024/05/03 10:24:01;;;;;;;5.47;1.70;;;25.00;57.30;;;;;;5338614;26;20361;-59
2024/05/03 10:26:28;;;;;;;4.67;1.70;;;25.10;57.40;;;;;;5306416;27;20426;-60
2024/05/03 10:29:04;;;;;;;4.47;1.85;;;25.40;56.50;;;;;;5338167;26;20377;-59
2024/05/03 10:31:30;;;;;;;7.85;1.83;;;25.40;56.50;;;;;;5338446;26;20321;-60
2024/05/03 10:33:56;;;;;;;4.55;1.58;;;25.70;55.90;;;;;;5338608;26;20872;-59
2024/05/03 10:36:25;;;;;;;3.80;1.80;;;26.00;55.70;;;;;;5339387;26;20340;-58
2024/05/03 10:38:52;;;;;;;6.83;1.70;;;26.00;55.10;;;;;;5338472;26;20419;-58
2024/05/03 10:41:18;;;;;;;5.93;1.30;;;26.10;55.10;;;;;;5340887;26;20313;-59
2024/05/03 10:43:43;;;;;;;3.67;1.52;;;26.20;54.80;;;;;;5339768;26;20384;-59
2024/05/03 10:46:10;;;;;;;4.80;1.83;;;26.10;54.30;;;;;;5334813;26;20376;-59
2024/05/03 10:48:39;;;;;;;5.70;1.58;;;25.70;55.00;;;;;;5340229;26;21226;-58
2024/05/03 10:51:05;;;;;;;7.38;1.83;;;25.70;55.30;;;;;;5336706;26;20324;-59
2024/05/03 10:53:32;;;;;;;4.38;1.52;;;26.00;54.70;;;;;;5339680;26;20337;-59
2024/05/03 10:55:58;;;;;;;4.10;1.60;;;26.30;54.50;;;;;;5340458;26;20383;-59
2024/05/03 10:58:25;;;;;;;3.00;1.63;;;26.50;54.20;;;;;;5339887;26;20329;-60
2024/05/03 11:00:57;;;;;;;7.13;1.40;;;26.70;53.40;;;;;;5341781;26;20333;-59
2024/05/03 11:03:23;;;;;;;2.67;1.40;;;26.20;53.80;;;;;;5340670;26;20363;-59
2024/05/03 11:05:49;;;;;;;4.43;1.17;;;25.90;54.50;;;;;;5341777;26;20321;-60
2024/05/03 11:08:15;;;;;;;5.90;1.48;;;25.60;54.80;;;;;;5340073;26;20397;-58
2024/05/03 11:10:41;;;;;;;3.78;1.48;;;25.70;54.90;;;;;;5310933;26;20371;-58
2024/05/03 11:13:07;;;;;;;2.50;1.20;;;25.80;54.50;;;;;;5343750;26;20862;-58
2024/05/03 11:15:36;;;;;;;4.90;1.10;;;26.30;53.60;;;;;;5341998;26;20387;-59
2024/05/03 11:18:05;;;;;;;4.00;1.20;;;26.60;52.80;;;;;;5341874;26;20819;-59
2024/05/03 11:20:31;;;;;;;4.37;1.10;;;26.50;53.10;;;;;;5370044;26;20329;-58
2024/05/03 11:23:10;;;;;;;4.63;1.27;;;26.20;53.30;;;;;;5336028;26;20871;-59
2024/05/03 11:25:49;;;;;;;3.40;1.35;;;26.30;53.10;;;;;;5336459;26;20336;-58
2024/05/03 11:28:15;;;;;;;1.88;1.25;;;26.40;53.60;;;;;;5339059;26;20449;-58
2024/05/03 11:30:42;;;;;;;3.40;1.25;;;26.30;53.70;;;;;;5343059;26;20388;-59
2024/05/03 11:33:07;;;;;;;4.15;1.27;;;26.70;53.70;;;;;;5341228;26;20425;-59
2024/05/03 11:35:33;;;;;;;2.88;1.10;;;27.10;52.70;;;;;;5340998;26;20340;-58
2024/05/03 11:38:02;;;;;;;4.20;1.40;;;27.20;52.60;;;;;;5342318;26;20332;-59
2024/05/03 11:40:27;;;;;;;5.65;1.40;;;27.10;52.50;;;;;;5339954;26;20336;-58
2024/05/03 11:42:54;;;;;;;6.30;1.33;;;26.90;53.10;;;;;;5340796;26;20906;-58
2024/05/03 11:45:20;;;;;;;3.78;1.15;;;26.30;54.10;;;;;;5328805;26;20349;-59
2024/05/03 11:47:47;;;;;;;3.40;1.60;;;25.80;54.80;;;;;;5342746;26;20447;-59
2024/05/03 11:50:12;;;;;;;5.72;1.00;;;25.60;55.10;;;;;;5331744;26;20364;-59
2024/05/03 11:52:40;;;;;;;4.17;1.43;;;25.50;55.30;;;;;;5337896;26;20333;-59
2024/05/03 11:55:06;;;;;;;3.10;1.08;;;25.40;55.50;;;;;;5341952;26;20348;-58
2024/05/03 11:57:32;;;;;;;4.07;1.10;;;25.30;55.80;;;;;;5340626;26;20448;-58
2024/05/03 11:59:57;;;;;;;3.00;1.17;;;25.30;56.00;;;;;;5339999;26;20768;-59
2024/05/03 12:02:23;;;;;;;2.00;0.90;;;25.20;56.10;;;;;;5340400;26;20325;-59
2024/05/03 12:04:49;;;;;;;2.83;0.90;;;25.40;56.40;;;;;;5340317;26;20381;-59
2024/05/03 12:07:15;;;;;;;3.17;1.30;;;25.50;55.70;;;;;;5341117;26;20344;-58
2024/05/03 12:09:40;;;;;;;2.20;1.10;;;25.10;55.90;;;;;;5338673;26;20343;-58
2024/05/03 12:12:06;;;;;;;3.00;0.82;;;25.00;56.00;;;;;;5342224;26;20414;-58
2024/05/03 12:14:32;;;;;;;2.20;1.30;;;24.90;56.10;;;;;;5341676;26;20337;-59
2024/05/03 12:16:57;;;;;;;1.30;0.80;;;25.10;56.20;;;;;;5342345;26;20798;-59
2024/05/03 12:19:23;;;;;;;3.13;0.80;;;25.90;54.80;;;;;;5338314;26;20368;-59
2024/05/03 12:21:49;;;;;;;3.07;0.90;;;26.70;53.40;;;;;;5342429;26;20361;-59
2024/05/03 12:24:14;;;;;;;2.23;1.00;;;27.40;52.60;;;;;;5339518;26;20381;-59
2024/05/03 12:26:40;;;;;;;3.60;0.90;;;27.60;51.50;;;;;;5342513;26;20394;-58
2024/05/03 12:29:06;;;;;;;1.85;0.80;;;27.20;51.80;;;;;;5340331;26;20788;-59
2024/05/03 12:31:33;;;;;;;1.70;0.80;;;26.40;52.80;;;;;;5341441;26;20366;-59
2024/05/03 12:33:59;;;;;;;1.52;0.82;;;26.00;53.70;;;;;;5342345;26;20337;-57
2024/05/03 12:36:25;;;;;;;1.43;1.10;;;26.30;53.30;;;;;;5339584;26;20325;-59
2024/05/03 12:38:51;;;;;;;2.33;0.70;;;26.60;52.60;;;;;;5342160;26;20332;-58
2024/05/03 12:41:16;;;;;;;1.30;0.63;;;26.70;52.60;;;;;;5341113;26;20328;-59